createdAt,value
2023-11-15T00:00:23.658Z,69.60
2023-11-15T00:02:51.868Z,69.60
2023-11-15T00:05:20.086Z,69.60
2023-11-15T00:07:48.258Z,69.60
2023-11-15T00:10:16.478Z,69.60
2023-11-15T00:12:45.344Z,69.60
2023-11-15T00:15:15.364Z,69.60
2023-11-15T00:17:43.886Z,69.60
2023-11-15T00:20:14.603Z,69.60
2023-11-15T00:22:42.997Z,69.50
2023-11-15T00:25:11.739Z,69.50
2023-11-15T00:27:39.876Z,69.50
2023-11-15T00:30:11.957Z,69.50
2023-11-15T00:32:41.712Z,69.50
2023-11-15T00:35:13.414Z,69.50
2023-11-15T00:37:41.791Z,69.50
2023-11-15T00:40:14.741Z,69.50
2023-11-15T00:42:43.182Z,69.60
2023-11-15T00:45:13.217Z,69.60
2023-11-15T00:47:43.195Z,69.60
2023-11-15T00:50:11.710Z,69.60
2023-11-15T00:52:40.024Z,69.70
2023-11-15T00:55:09.670Z,69.70
2023-11-15T00:57:37.747Z,69.60
2023-11-15T01:00:22.930Z,69.60
2023-11-15T01:02:55.656Z,69.70
2023-11-15T01:05:24.367Z,69.80
2023-11-15T01:07:52.557Z,69.60
2023-11-15T01:10:21.642Z,69.70
2023-11-15T01:12:49.827Z,69.70
2023-11-15T01:15:18.092Z,69.80
2023-11-15T01:17:47.913Z,69.70
2023-11-15T01:20:17.608Z,69.80
2023-11-15T01:22:46.694Z,69.80
2023-11-15T01:25:15.418Z,69.80
2023-11-15T01:27:43.774Z,69.80
2023-11-15T01:30:12.605Z,69.70
2023-11-15T01:32:41.409Z,69.70
2023-11-15T01:35:10.439Z,69.80
2023-11-15T01:37:39.911Z,69.90
2023-11-15T01:40:11.239Z,70.00
2023-11-15T01:42:40.451Z,70.00
2023-11-15T01:45:09.515Z,70.00
2023-11-15T01:47:38.152Z,70.00
2023-11-15T01:50:11.262Z,70.10
2023-11-15T01:52:41.627Z,70.00
2023-11-15T01:55:14.931Z,70.00
2023-11-15T01:57:43.708Z,70.00
2023-11-15T02:00:13.635Z,70.10
2023-11-15T02:02:42.641Z,70.10
2023-11-15T02:05:11.796Z,70.10
2023-11-15T02:07:42.803Z,70.10
2023-11-15T02:10:13.756Z,70.30
2023-11-15T02:12:42.036Z,70.30
2023-11-15T02:15:11.084Z,70.30
2023-11-15T02:17:40.209Z,70.40
2023-11-15T02:20:10.039Z,70.40
2023-11-15T02:22:47.020Z,70.50
2023-11-15T02:25:17.654Z,70.50
2023-11-15T02:27:46.239Z,70.50
2023-11-15T02:30:15.529Z,70.60
2023-11-15T02:32:45.203Z,70.70
2023-11-15T02:35:13.357Z,70.70
2023-11-15T02:37:41.449Z,70.70
2023-11-15T02:40:12.080Z,70.70
2023-11-15T02:42:41.705Z,70.70
2023-11-15T02:45:11.278Z,70.80
2023-11-15T02:47:39.653Z,70.80
2023-11-15T02:50:09.146Z,70.80
2023-11-15T02:52:37.595Z,70.90
2023-11-15T02:55:06.203Z,70.90
2023-11-15T02:57:36.303Z,70.90
2023-11-15T03:00:07.560Z,71.00
2023-11-15T03:02:35.889Z,71.00
2023-11-15T03:05:04.222Z,71.00
2023-11-15T03:07:32.434Z,71.10
2023-11-15T03:10:01.004Z,71.00
2023-11-15T03:12:29.161Z,71.20
2023-11-15T03:14:57.403Z,71.20
2023-11-15T03:17:28.204Z,71.20
2023-11-15T03:19:57.034Z,71.20
2023-11-15T03:22:25.116Z,71.20
2023-11-15T03:24:53.211Z,71.20
2023-11-15T03:27:21.328Z,71.30
2023-11-15T03:29:49.536Z,71.10
2023-11-15T03:32:18.321Z,71.20
2023-11-15T03:34:48.571Z,71.30
2023-11-15T03:37:16.875Z,71.30
2023-11-15T03:39:45.662Z,71.30
2023-11-15T03:42:14.163Z,71.30
2023-11-15T03:44:42.297Z,71.30
2023-11-15T03:47:10.385Z,71.30
2023-11-15T03:49:38.469Z,71.30
2023-11-15T03:52:10.662Z,71.40
2023-11-15T03:54:38.725Z,71.30
2023-11-15T03:57:09.247Z,71.30
2023-11-15T03:59:37.475Z,71.40
2023-11-15T04:02:05.744Z,71.40
2023-11-15T04:04:34.730Z,71.40
2023-11-15T04:07:04.201Z,71.40
2023-11-15T04:09:34.923Z,71.40
2023-11-15T04:12:03.103Z,71.40
2023-11-15T04:14:31.356Z,71.40
2023-11-15T04:16:59.555Z,71.40
2023-11-15T04:19:27.761Z,71.50
2023-11-15T04:22:08.140Z,71.60
2023-11-15T04:24:41.751Z,71.60
2023-11-15T04:27:09.921Z,71.60
2023-11-15T04:29:39.162Z,71.60
2023-11-15T04:32:07.858Z,71.60
2023-11-15T04:34:35.986Z,71.60
2023-11-15T04:37:04.115Z,71.60
2023-11-15T04:39:32.708Z,71.60
2023-11-15T04:42:03.121Z,71.60
2023-11-15T04:44:31.917Z,71.60
2023-11-15T04:47:00.195Z,71.70
2023-11-15T04:49:28.325Z,71.70
2023-11-15T04:51:56.385Z,71.70
2023-11-15T04:54:24.624Z,71.70
2023-11-15T04:56:53.042Z,71.80
2023-11-15T04:59:22.529Z,71.90
2023-11-15T05:01:50.644Z,71.90
2023-11-15T05:04:18.964Z,71.90
2023-11-15T05:06:48.508Z,71.90
2023-11-15T05:09:17.176Z,71.90
2023-11-15T05:11:45.313Z,71.90
2023-11-15T05:14:14.226Z,71.90
2023-11-15T05:16:43.757Z,72.00
2023-11-15T05:19:11.834Z,72.00
2023-11-15T05:21:39.924Z,72.00
2023-11-15T05:24:10.269Z,72.10
2023-11-15T05:26:38.549Z,72.10
2023-11-15T05:29:06.856Z,72.20
2023-11-15T05:31:34.970Z,72.20
2023-11-15T05:34:04.483Z,72.20
2023-11-15T05:36:33.480Z,72.30
2023-11-15T05:39:01.584Z,72.30
2023-11-15T05:41:30.001Z,72.30
2023-11-15T05:43:58.235Z,72.30
2023-11-15T05:46:26.816Z,72.30
2023-11-15T05:48:55.034Z,72.40
2023-11-15T05:51:24.697Z,72.40
2023-11-15T05:53:52.804Z,72.50
2023-11-15T05:56:23.022Z,72.50
2023-11-15T05:58:51.264Z,73.20
2023-11-15T06:01:21.609Z,72.60
2023-11-15T06:03:49.883Z,72.60
2023-11-15T06:06:18.151Z,72.60
2023-11-15T06:08:48.509Z,72.60
2023-11-15T06:11:17.463Z,72.50
2023-11-15T06:13:45.639Z,72.50
2023-11-15T06:16:13.760Z,72.50
2023-11-15T06:18:42.580Z,72.50
2023-11-15T06:21:12.417Z,72.60
2023-11-15T06:23:40.529Z,72.60
2023-11-15T06:26:12.480Z,72.60
2023-11-15T06:28:42.101Z,72.70
2023-11-15T06:31:10.208Z,72.70
2023-11-15T06:33:38.990Z,72.80
2023-11-15T06:36:08.126Z,72.90
2023-11-15T06:38:36.331Z,72.80
2023-11-15T06:41:09.778Z,72.90
2023-11-15T06:43:39.216Z,72.90
2023-11-15T06:46:07.316Z,72.90
2023-11-15T06:48:35.649Z,72.90
2023-11-15T06:51:03.910Z,73.00
2023-11-15T06:53:32.690Z,72.90
2023-11-15T06:56:00.821Z,73.00
2023-11-15T06:58:28.904Z,73.00
2023-11-15T07:00:58.652Z,73.10
2023-11-15T07:03:26.953Z,73.10
2023-11-15T07:05:58.126Z,73.20
2023-11-15T07:08:27.525Z,73.20
2023-11-15T07:10:56.282Z,73.30
2023-11-15T07:13:25.325Z,73.30
2023-11-15T07:15:54.587Z,73.30
2023-11-15T07:18:26.419Z,73.30
2023-11-15T07:20:56.275Z,73.30
2023-11-15T07:23:24.453Z,73.40
2023-11-15T07:25:52.529Z,73.50
2023-11-15T07:28:21.052Z,73.50
2023-11-15T07:30:51.638Z,73.50
2023-11-15T07:33:21.029Z,74.30
2023-11-15T07:35:51.122Z,73.70
2023-11-15T07:38:19.542Z,73.70
2023-11-15T07:40:49.882Z,73.80
2023-11-15T07:43:18.320Z,73.90
2023-11-15T07:45:52.778Z,73.80
2023-11-15T07:48:21.989Z,74.00
2023-11-15T07:50:52.648Z,74.00
2023-11-15T07:53:20.861Z,74.00
2023-11-15T07:55:48.936Z,74.10
2023-11-15T07:58:18.642Z,74.10
2023-11-15T08:00:46.765Z,74.20
2023-11-15T08:03:15.095Z,74.10
2023-11-15T08:05:44.253Z,74.10
2023-11-15T08:08:14.746Z,74.10
2023-11-15T08:10:47.976Z,74.00
2023-11-15T08:13:18.520Z,74.00
2023-11-15T08:15:47.717Z,73.90
2023-11-15T08:18:16.694Z,73.90
2023-11-15T08:20:46.345Z,73.80
2023-11-15T08:23:16.279Z,73.80
2023-11-15T08:25:48.556Z,73.80
2023-11-15T08:28:16.783Z,73.70
2023-11-15T08:30:46.728Z,73.60
2023-11-15T08:33:15.296Z,73.60
2023-11-15T08:35:44.963Z,73.50
2023-11-15T08:38:14.080Z,73.40
2023-11-15T08:40:50.102Z,73.40
2023-11-15T08:43:19.084Z,73.30
2023-11-15T08:45:47.954Z,73.30
2023-11-15T08:48:18.774Z,73.20
2023-11-15T08:50:49.472Z,73.10
2023-11-15T08:53:19.753Z,73.00
2023-11-15T08:55:50.291Z,73.00
2023-11-15T08:58:21.232Z,72.90
2023-11-15T09:00:51.544Z,72.90
2023-11-15T09:03:19.728Z,73.00
2023-11-15T09:05:49.766Z,72.80
2023-11-15T09:08:18.113Z,72.80
2023-11-15T09:10:46.202Z,72.80
2023-11-15T09:13:16.536Z,72.90
2023-11-15T09:15:44.998Z,72.90
2023-11-15T09:18:15.864Z,72.80
2023-11-15T09:20:44.902Z,72.90
2023-11-15T09:23:22.364Z,72.60
2023-11-15T09:26:00.033Z,72.50
2023-11-15T09:28:30.303Z,72.50
2023-11-15T09:30:58.543Z,72.40
2023-11-15T09:33:30.697Z,72.50
2023-11-15T09:36:01.451Z,72.50
2023-11-15T09:38:30.175Z,72.50
2023-11-15T09:41:01.072Z,73.20
2023-11-15T09:43:30.611Z,72.50
2023-11-15T09:45:59.936Z,72.50
2023-11-15T09:48:29.299Z,72.30
2023-11-15T09:50:59.003Z,72.30
2023-11-15T09:53:32.684Z,72.40
2023-11-15T09:56:05.517Z,72.50
2023-11-15T09:58:36.480Z,72.50
2023-11-15T10:01:05.237Z,72.40
2023-11-15T10:03:33.604Z,72.50
2023-11-15T10:06:01.903Z,72.30
2023-11-15T10:08:31.193Z,72.30
2023-11-15T10:11:10.353Z,72.30
2023-11-15T10:13:40.666Z,72.30
2023-11-15T10:16:27.775Z,72.40
2023-11-15T10:18:57.730Z,72.40
2023-11-15T10:21:25.927Z,72.60
2023-11-15T10:24:11.418Z,72.50
2023-11-15T10:26:40.715Z,72.60
2023-11-15T10:29:13.937Z,72.50
2023-11-15T10:31:54.321Z,72.50
2023-11-15T10:34:30.911Z,72.50
2023-11-15T10:37:08.699Z,72.50
2023-11-15T10:39:42.064Z,72.40
2023-11-15T10:42:13.668Z,72.50
2023-11-15T10:44:48.473Z,72.50
2023-11-15T10:47:20.723Z,72.50
2023-11-15T10:49:59.161Z,72.60
2023-11-15T10:52:30.584Z,72.60
2023-11-15T10:54:59.550Z,72.40
2023-11-15T10:57:29.407Z,72.40
2023-11-15T11:00:07.434Z,72.40
2023-11-15T11:02:36.181Z,72.40
2023-11-15T11:05:05.351Z,72.40
2023-11-15T11:07:41.451Z,72.40
2023-11-15T11:10:18.010Z,72.40
2023-11-15T11:12:46.139Z,72.20
2023-11-15T11:15:33.254Z,72.20
2023-11-15T11:18:06.219Z,72.20
2023-11-15T11:20:37.081Z,72.30
2023-11-15T11:23:11.982Z,72.20
2023-11-15T11:25:41.122Z,72.20
2023-11-15T11:28:12.456Z,72.10
2023-11-15T11:30:42.810Z,72.00
2023-11-15T11:33:15.373Z,72.10
2023-11-15T11:35:44.808Z,72.00
2023-11-15T11:38:33.519Z,71.80
2023-11-15T11:41:03.920Z,71.60
2023-11-15T11:43:33.686Z,71.40
2023-11-15T11:46:17.129Z,71.30
2023-11-15T11:48:45.726Z,71.30
2023-11-15T11:51:15.665Z,71.50
2023-11-15T11:53:46.380Z,71.90
2023-11-15T11:56:15.018Z,71.90
2023-11-15T11:58:45.192Z,71.60
2023-11-15T12:01:15.478Z,70.50
2023-11-15T12:06:20.286Z,69.40
2023-11-15T12:08:53.361Z,69.40
2023-11-15T12:11:23.954Z,68.20
2023-11-15T12:16:25.942Z,64.90
2023-11-15T12:19:09.092Z,61.50
2023-11-15T12:21:39.675Z,62.10
2023-11-15T12:24:10.798Z,61.10
2023-11-15T12:26:43.654Z,60.40
2023-11-15T12:29:28.049Z,58.50
2023-11-15T12:32:00.645Z,57.40
2023-11-15T12:34:29.859Z,57.40
2023-11-15T12:36:58.200Z,57.10
2023-11-15T12:39:37.659Z,56.80
2023-11-15T12:42:06.446Z,55.80
2023-11-15T12:44:45.509Z,55.50
2023-11-15T12:47:17.184Z,54.20
2023-11-15T12:49:45.325Z,53.90
2023-11-15T12:52:13.409Z,53.40
2023-11-15T12:54:55.155Z,52.60
2023-11-15T12:57:23.212Z,51.80
2023-11-15T12:59:53.205Z,52.50
2023-11-15T13:02:27.918Z,52.70
2023-11-15T13:04:57.476Z,53.00
2023-11-15T13:07:25.577Z,53.50
2023-11-15T13:09:54.030Z,53.70
2023-11-15T13:12:26.981Z,54.00
2023-11-15T13:14:57.391Z,54.30
2023-11-15T13:17:28.584Z,54.70
2023-11-15T13:20:00.610Z,54.90
2023-11-15T13:22:31.143Z,55.10
2023-11-15T13:24:59.363Z,55.40
2023-11-15T13:27:27.561Z,55.50
2023-11-15T13:29:55.760Z,55.80
2023-11-15T13:32:24.928Z,55.90
2023-11-15T13:34:54.562Z,56.00
2023-11-15T13:37:25.544Z,56.20
2023-11-15T13:39:53.614Z,56.40
2023-11-15T13:42:24.445Z,56.40
2023-11-15T13:44:52.809Z,56.50
2023-11-15T13:47:20.899Z,56.70
2023-11-15T13:49:49.018Z,56.80
2023-11-15T13:52:18.502Z,57.00
2023-11-15T13:54:47.595Z,57.10
2023-11-15T13:57:16.216Z,57.10
2023-11-15T13:59:44.414Z,57.20
2023-11-15T14:02:13.006Z,57.40
2023-11-15T14:04:41.445Z,57.60
2023-11-15T14:07:09.544Z,57.60
2023-11-15T14:09:39.020Z,57.60
2023-11-15T14:12:07.863Z,57.50
2023-11-15T14:14:36.728Z,57.50
2023-11-15T14:17:08.299Z,57.60
2023-11-15T14:19:38.250Z,57.60
2023-11-15T14:22:07.149Z,57.60
2023-11-15T14:24:36.753Z,57.50
2023-11-15T14:27:06.652Z,57.60
2023-11-15T14:29:35.282Z,57.60
2023-11-15T14:32:04.184Z,57.70
2023-11-15T14:34:32.646Z,57.80
2023-11-15T14:37:01.234Z,57.80
2023-11-15T14:39:32.457Z,57.80
2023-11-15T14:42:00.982Z,57.90
2023-11-15T14:44:31.192Z,58.00
2023-11-15T14:47:00.125Z,58.00
2023-11-15T14:49:29.343Z,58.00
2023-11-15T14:52:11.788Z,58.00
2023-11-15T14:54:46.658Z,57.90
2023-11-15T14:57:15.253Z,57.90
2023-11-15T14:59:46.212Z,57.90
2023-11-15T15:02:14.683Z,58.00
2023-11-15T15:04:46.488Z,58.00
2023-11-15T15:07:16.499Z,58.00
2023-11-15T15:09:45.409Z,58.30
2023-11-15T15:12:14.173Z,58.30
2023-11-15T15:14:42.691Z,58.40
2023-11-15T15:17:23.220Z,58.60
2023-11-15T15:19:54.171Z,59.20
2023-11-15T15:22:27.461Z,58.80
2023-11-15T15:24:55.940Z,58.90
2023-11-15T15:27:24.159Z,58.90
2023-11-15T15:29:52.453Z,59.10
2023-11-15T15:32:21.935Z,59.20
2023-11-15T15:34:49.985Z,59.20
2023-11-15T15:37:18.067Z,59.30
2023-11-15T15:39:46.158Z,59.30
2023-11-15T15:42:14.392Z,59.40
2023-11-15T15:44:42.597Z,59.50
2023-11-15T15:47:10.723Z,59.60
2023-11-15T15:49:46.273Z,59.60
2023-11-15T15:52:14.575Z,59.70
2023-11-15T15:54:43.668Z,59.80
2023-11-15T15:57:15.110Z,59.80
2023-11-15T15:59:43.333Z,59.90
2023-11-15T16:02:11.702Z,60.00
2023-11-15T16:04:43.655Z,60.10
2023-11-15T16:07:11.916Z,60.10
2023-11-15T16:09:42.457Z,60.20
2023-11-15T16:12:10.711Z,60.30
2023-11-15T16:14:38.950Z,60.40
2023-11-15T16:17:08.528Z,60.50
2023-11-15T16:19:36.685Z,60.40
2023-11-15T16:22:06.375Z,60.50
2023-11-15T16:24:34.467Z,60.40
2023-11-15T16:27:04.440Z,60.60
2023-11-15T16:29:33.507Z,60.50
2023-11-15T16:32:01.984Z,60.50
2023-11-15T16:34:30.197Z,60.50
2023-11-15T16:36:59.722Z,60.50
2023-11-15T16:39:29.320Z,60.50
2023-11-15T16:41:57.625Z,60.50
2023-11-15T16:44:29.418Z,60.50
2023-11-15T16:46:57.911Z,60.70
2023-11-15T16:49:26.045Z,60.70
2023-11-15T16:51:55.168Z,60.80
2023-11-15T16:54:23.417Z,61.60
2023-11-15T16:56:52.961Z,60.80
2023-11-15T16:59:21.189Z,60.80
2023-11-15T17:01:49.323Z,60.90
2023-11-15T17:04:17.458Z,61.00
2023-11-15T17:06:45.919Z,61.00
2023-11-15T17:09:15.410Z,61.10
2023-11-15T17:11:43.630Z,61.20
2023-11-15T17:14:14.109Z,61.20
2023-11-15T17:16:42.338Z,61.20
2023-11-15T17:19:10.595Z,61.30
2023-11-15T17:21:40.832Z,61.20
2023-11-15T17:24:09.325Z,61.40
2023-11-15T17:26:37.570Z,61.40
2023-11-15T17:29:05.677Z,61.30
2023-11-15T17:31:35.150Z,61.30
2023-11-15T17:34:03.347Z,61.30
2023-11-15T17:36:31.643Z,61.30
2023-11-15T17:39:01.496Z,61.10
2023-11-15T17:41:31.243Z,61.10
2023-11-15T17:43:59.315Z,61.10
2023-11-15T17:46:27.609Z,61.10
2023-11-15T17:48:57.634Z,61.00
2023-11-15T17:51:25.717Z,61.00
2023-11-15T17:53:54.324Z,61.00
2023-11-15T17:56:22.511Z,60.90
2023-11-15T17:58:52.184Z,60.90
2023-11-15T18:03:49.741Z,60.90
2023-11-15T18:06:23.654Z,60.80
2023-11-15T18:08:52.960Z,60.70
2023-11-15T18:11:21.182Z,60.60
2023-11-15T18:13:49.275Z,60.70
2023-11-15T18:16:17.478Z,60.70
2023-11-15T18:18:47.621Z,60.70
2023-11-15T18:21:15.768Z,60.50
2023-11-15T18:23:47.570Z,60.50
2023-11-15T18:26:15.968Z,60.70
2023-11-15T18:28:44.165Z,60.40
2023-11-15T18:31:12.289Z,60.30
2023-11-15T18:33:40.529Z,60.40
2023-11-15T18:36:11.313Z,60.30
2023-11-15T18:38:40.501Z,60.20
2023-11-15T18:41:10.421Z,60.20
2023-11-15T18:43:38.597Z,60.20
2023-11-15T18:46:07.519Z,61.00
2023-11-15T18:48:35.723Z,60.10
2023-11-15T18:51:03.896Z,60.10
2023-11-15T18:53:32.024Z,60.00
2023-11-15T18:56:01.280Z,60.00
2023-11-15T18:58:30.802Z,60.00
2023-11-15T19:01:02.379Z,59.90
2023-11-15T19:03:30.564Z,59.90
2023-11-15T19:05:58.778Z,59.90
2023-11-15T19:08:28.071Z,59.80
2023-11-15T19:10:56.753Z,59.80
2023-11-15T19:13:26.242Z,59.70
2023-11-15T19:15:57.562Z,59.70
2023-11-15T19:18:26.206Z,59.70
2023-11-15T19:20:54.405Z,59.70
2023-11-15T19:23:23.552Z,59.70
2023-11-15T19:25:51.805Z,59.60
2023-11-15T19:28:20.078Z,59.60
2023-11-15T19:30:50.119Z,59.60
2023-11-15T19:33:21.977Z,59.50
2023-11-15T19:35:51.074Z,59.50
2023-11-15T19:38:20.154Z,59.50
2023-11-15T19:40:48.397Z,59.40
2023-11-15T19:43:16.558Z,59.40
2023-11-15T19:45:45.472Z,59.30
2023-11-15T19:48:13.817Z,59.30
2023-11-15T19:50:43.329Z,59.30
2023-11-15T19:53:12.234Z,59.20
2023-11-15T19:55:40.562Z,59.20
2023-11-15T19:58:08.661Z,59.10
2023-11-15T20:00:37.648Z,59.10
2023-11-15T20:03:10.833Z,58.90
2023-11-15T20:05:41.230Z,58.90
2023-11-15T20:08:10.795Z,58.90
2023-11-15T20:10:38.986Z,58.80
2023-11-15T20:13:08.406Z,58.70
2023-11-15T20:15:38.202Z,58.70
2023-11-15T20:18:07.009Z,58.70
2023-11-15T20:20:35.403Z,58.60
2023-11-15T20:23:03.477Z,58.60
2023-11-15T20:25:33.037Z,58.40
2023-11-15T20:28:01.581Z,58.40
2023-11-15T20:30:29.764Z,58.40
2023-11-15T20:32:57.992Z,58.20
2023-11-15T20:35:26.159Z,58.20
2023-11-15T20:37:54.265Z,58.20
2023-11-15T20:40:23.416Z,58.20
2023-11-15T20:42:54.062Z,58.20
2023-11-15T20:45:23.257Z,58.00
2023-11-15T20:47:51.530Z,58.00
2023-11-15T20:50:23.687Z,58.00
2023-11-15T20:52:51.864Z,58.00
2023-11-15T20:55:24.786Z,57.90
2023-11-15T20:58:00.041Z,57.90
2023-11-15T21:00:30.614Z,57.80
2023-11-15T21:02:58.981Z,57.70
2023-11-15T21:05:28.550Z,57.60
2023-11-15T21:07:57.307Z,57.70
2023-11-15T21:10:25.391Z,57.70
2023-11-15T21:12:55.258Z,57.60
2023-11-15T21:15:23.671Z,57.60
2023-11-15T21:17:52.267Z,57.60
2023-11-15T21:20:20.504Z,57.50
2023-11-15T21:22:48.622Z,57.60
2023-11-15T21:25:16.745Z,57.60
2023-11-15T21:27:46.017Z,57.60
2023-11-15T21:30:17.379Z,57.60
2023-11-15T21:32:45.916Z,57.50
2023-11-15T21:35:14.418Z,57.50
2023-11-15T21:37:42.990Z,57.40
2023-11-15T21:40:15.693Z,57.50
2023-11-15T21:42:45.585Z,57.40
2023-11-15T21:45:17.632Z,57.50
2023-11-15T21:47:46.983Z,57.50
2023-11-15T21:50:16.750Z,57.60
2023-11-15T21:52:45.552Z,57.50
2023-11-15T21:55:13.809Z,57.50
2023-11-15T21:57:42.078Z,57.50
2023-11-15T22:00:14.639Z,57.50
2023-11-15T22:02:44.896Z,57.60
2023-11-15T22:05:13.141Z,57.60
2023-11-15T22:07:42.056Z,57.50
2023-11-15T22:10:11.258Z,57.60
2023-11-15T22:12:39.544Z,57.60
2023-11-15T22:15:10.231Z,57.70
2023-11-15T22:17:40.465Z,57.70
2023-11-15T22:20:12.259Z,57.60
2023-11-15T22:22:40.417Z,57.60
2023-11-15T22:25:08.886Z,57.60
2023-11-15T22:27:37.096Z,57.50
2023-11-15T22:30:07.887Z,57.50
2023-11-15T22:32:37.772Z,57.50
2023-11-15T22:35:06.508Z,57.30
2023-11-15T22:37:36.003Z,57.30
2023-11-15T22:40:04.229Z,57.20
2023-11-15T22:42:32.354Z,57.20
2023-11-15T22:45:00.578Z,57.10
2023-11-15T22:47:28.717Z,57.00
2023-11-15T22:49:56.813Z,57.00
2023-11-15T22:52:24.916Z,57.00
2023-11-15T22:54:54.354Z,56.90
2023-11-15T22:57:22.482Z,56.90
2023-11-15T22:59:52.621Z,56.90
2023-11-15T23:02:21.498Z,56.80
2023-11-15T23:04:50.264Z,56.80
2023-11-15T23:07:21.595Z,56.80
2023-11-15T23:09:50.043Z,56.70
2023-11-15T23:12:19.653Z,56.70
2023-11-15T23:14:49.302Z,56.70
2023-11-15T23:17:17.945Z,56.60
2023-11-15T23:19:46.223Z,56.60
2023-11-15T23:22:15.553Z,56.50
2023-11-15T23:24:44.016Z,56.50
2023-11-15T23:27:12.326Z,56.50
2023-11-15T23:29:42.449Z,56.50
2023-11-15T23:32:10.639Z,56.40
2023-11-15T23:34:38.763Z,56.40
2023-11-15T23:37:06.921Z,56.40
2023-11-15T23:39:35.258Z,56.30
2023-11-15T23:42:05.460Z,56.30
2023-11-15T23:44:36.750Z,56.30
2023-11-15T23:47:07.427Z,56.30
2023-11-15T23:49:37.819Z,56.30
2023-11-15T23:52:06.987Z,56.30
2023-11-15T23:57:04.349Z,56.30
2023-11-15T23:59:32.649Z,56.30
